Time;durP1;ratioP1;P1;durP2;ratioP2;P2;SDS_P1;SDS_P2;PMS_P1;PMS_P2;Temp;Humidity;BMP_temperature;BMP_pressure;BME280_temperature;BME280_humidity;BME280_pressure;Samples;Min_cycle;Max_cycle;Signal;HPM_P1;HPM_P2
2021/03/22 00:01:15;;;;;;;;;;;5.20;87.00;;;;;;4949597;28;19910;-73
2021/03/22 00:03:43;;;;;;;;;;;5.20;86.40;;;;;;4947498;28;19993;-73
2021/03/22 00:06:12;;;;;;;;;;;5.20;87.00;;;;;;4965141;28;19914;-72
2021/03/22 00:08:39;;;;;;;;;;;5.20;86.70;;;;;;4952732;28;19980;-72
2021/03/22 00:11:05;;;;;;;;;;;5.20;86.20;;;;;;4968681;28;19981;-73
2021/03/22 00:13:33;;;;;;;;;;;5.20;85.80;;;;;;4935734;28;20376;-73
2021/03/22 00:16:02;;;;;;;;;;;5.20;86.30;;;;;;4933398;28;19949;-73
2021/03/22 00:18:28;;;;;;;;;;;5.20;86.20;;;;;;4968647;28;19909;-73
2021/03/22 00:20:57;;;;;;;;;;;5.20;85.90;;;;;;4966453;28;19909;-72
2021/03/22 00:23:22;;;;;;;;;;;5.20;86.40;;;;;;4969185;28;19972;-73
2021/03/22 00:25:48;;;;;;;;;;;5.20;86.60;;;;;;4969264;28;20001;-72
2021/03/22 00:28:14;;;;;;;;;;;5.20;86.50;;;;;;4970280;28;20327;-72
2021/03/22 00:30:40;;;;;;;;;;;5.20;86.80;;;;;;4970087;28;19910;-72
2021/03/22 00:33:06;;;;;;;;;;;5.20;87.60;;;;;;4967708;28;19944;-72
2021/03/22 00:35:32;;;;;;;;;;;5.20;87.70;;;;;;4968896;28;20581;-72
2021/03/22 00:38:00;;;;;;;;;;;5.20;87.50;;;;;;4951901;28;19921;-72
2021/03/22 00:40:28;;;;;;;;;;;5.10;88.10;;;;;;4968754;28;19914;-73
2021/03/22 00:42:54;;;;;;;;;;;5.20;88.20;;;;;;4934272;28;19920;-72
2021/03/22 00:45:19;;;;;;;;;;;5.20;88.70;;;;;;4968583;28;19961;-73
2021/03/22 00:47:45;;;;;;;;;;;5.20;88.00;;;;;;4969532;28;19925;-72
2021/03/22 00:50:11;;;;;;;;;;;5.20;88.20;;;;;;4951007;28;20569;-73
2021/03/22 00:52:37;;;;;;;;;;;5.20;87.70;;;;;;4969100;28;19996;-72
2021/03/22 00:55:03;;;;;;;;;;;5.20;87.60;;;;;;4936802;28;20009;-73
2021/03/22 00:57:28;;;;;;;;;;;5.20;88.00;;;;;;4973314;28;19937;-73
2021/03/22 00:59:54;;;;;;;;;;;5.20;88.40;;;;;;4972654;28;19909;-72
2021/03/22 01:02:19;;;;;;;;;;;5.10;88.30;;;;;;4973670;28;19946;-72
2021/03/22 01:04:45;;;;;;;;;;;5.20;89.00;;;;;;4972530;28;19914;-73
2021/03/22 01:07:10;;;;;;;;;;;5.20;88.00;;;;;;4972457;28;19919;-72
2021/03/22 01:09:41;;;;;;;;;;;5.10;87.50;;;;;;4972704;28;19909;-73
2021/03/22 01:12:07;;;;;;;;;;;5.10;87.60;;;;;;4954800;28;19921;-73
2021/03/22 01:14:35;;;;;;;;;;;5.10;87.60;;;;;;4954974;28;19918;-72
2021/03/22 01:17:00;;;;;;;;;;;5.10;87.20;;;;;;4955221;28;19925;-72
2021/03/22 01:19:26;;;;;;;;;;;5.10;87.40;;;;;;4972560;28;19913;-73
2021/03/22 01:21:55;;;;;;;;;;;5.10;87.30;;;;;;4972095;28;20160;-73
2021/03/22 01:24:22;;;;;;;;;;;5.00;86.90;;;;;;4956013;28;19921;-72
2021/03/22 01:26:48;;;;;;;;;;;5.10;87.30;;;;;;4953403;28;19972;-73
2021/03/22 01:29:17;;;;;;;;;;;5.00;86.50;;;;;;4971184;28;19918;-73
2021/03/22 01:31:43;;;;;;;;;;;5.00;86.20;;;;;;4972863;28;19932;-72
2021/03/22 01:34:08;;;;;;;;;;;4.90;86.50;;;;;;4972167;28;20344;-72
2021/03/22 01:36:36;;;;;;;;;;;4.90;86.40;;;;;;4972043;28;20443;-73
2021/03/22 01:39:25;;;;;;;;;;;4.90;87.80;;;;;;4953875;28;20281;-72
2021/03/22 01:41:50;;;;;;;;;;;4.90;86.70;;;;;;4959930;28;19910;-72
2021/03/22 01:44:16;;;;;;;;;;;4.90;86.40;;;;;;4973089;28;19921;-72
2021/03/22 01:46:42;;;;;;;;;;;4.80;87.10;;;;;;4971021;28;19914;-73
2021/03/22 01:49:07;;;;;;;;;;;4.80;87.20;;;;;;4969223;28;20439;-72
2021/03/22 01:51:33;;;;;;;;;;;4.80;87.20;;;;;;4954228;28;19914;-72
2021/03/22 01:54:01;;;;;;;;;;;4.80;87.10;;;;;;4954773;28;20005;-73
2021/03/22 01:56:32;;;;;;;;;;;4.80;86.60;;;;;;4954482;28;19970;-73
2021/03/22 01:58:57;;;;;;;;;;;4.80;86.60;;;;;;4971235;28;19910;-72
2021/03/22 02:01:25;;;;;;;;;;;4.70;87.40;;;;;;4944605;28;19914;-72
2021/03/22 02:03:51;;;;;;;;;;;4.80;87.60;;;;;;4970896;28;19914;-73
2021/03/22 02:06:17;;;;;;;;;;;4.70;87.20;;;;;;4971645;28;19910;-73
2021/03/22 02:08:45;;;;;;;;;;;4.80;87.60;;;;;;4955278;28;20748;-73
2021/03/22 02:11:20;;;;;;;;;;;4.80;87.70;;;;;;4954471;28;19918;-72
2021/03/22 02:13:48;;;;;;;;;;;4.80;87.00;;;;;;4971811;28;20572;-72
2021/03/22 02:16:17;;;;;;;;;;;4.70;86.40;;;;;;4955132;28;19943;-73
2021/03/22 02:18:43;;;;;;;;;;;4.80;86.40;;;;;;4953807;28;19918;-72
2021/03/22 02:21:11;;;;;;;;;;;4.80;87.30;;;;;;4970681;28;19910;-73
2021/03/22 02:23:56;;;;;;;;;;;4.80;87.10;;;;;;4970204;28;19913;-72
2021/03/22 02:26:36;;;;;;;;;;;4.80;86.80;;;;;;4971518;28;19968;-73
2021/03/22 02:29:08;;;;;;;;;;;4.70;87.50;;;;;;4972000;28;19924;-72
2021/03/22 02:31:43;;;;;;;;;;;4.80;87.10;;;;;;4971786;28;20016;-72
2021/03/22 02:34:15;;;;;;;;;;;4.80;87.10;;;;;;4953755;28;19918;-73
2021/03/22 02:36:53;;;;;;;;;;;4.80;86.60;;;;;;4970857;28;19924;-72
2021/03/22 02:39:18;;;;;;;;;;;4.80;87.70;;;;;;4954148;28;19909;-72
2021/03/22 02:41:47;;;;;;;;;;;4.80;87.70;;;;;;4971222;28;20212;-73
2021/03/22 02:44:17;;;;;;;;;;;4.80;88.40;;;;;;4950967;28;20046;-72
2021/03/22 02:46:43;;;;;;;;;;;4.80;88.20;;;;;;4970285;28;19918;-72
2021/03/22 02:49:14;;;;;;;;;;;4.80;87.90;;;;;;4969850;28;19914;-73
2021/03/22 02:51:49;;;;;;;;;;;4.80;88.40;;;;;;4953322;28;19910;-72
2021/03/22 02:54:16;;;;;;;;;;;4.80;88.40;;;;;;4953544;28;19910;-72
2021/03/22 02:56:57;;;;;;;;;;;4.80;88.50;;;;;;4954781;28;20007;-73
2021/03/22 02:59:30;;;;;;;;;;;4.80;87.80;;;;;;4952548;28;19914;-73
2021/03/22 03:01:59;;;;;;;;;;;4.80;87.60;;;;;;4948844;28;19961;-73
2021/03/22 03:04:24;;;;;;;;;;;4.80;87.50;;;;;;4948755;28;19920;-72
2021/03/22 03:06:50;;;;;;;;;;;4.70;88.40;;;;;;4951160;28;19914;-72
2021/03/22 03:09:18;;;;;;;;;;;4.70;89.00;;;;;;4969857;28;19961;-73
2021/03/22 03:11:44;;;;;;;;;;;4.80;88.40;;;;;;4937854;28;19918;-73
2021/03/22 03:14:09;;;;;;;;;;;4.80;88.50;;;;;;4960399;28;19917;-73
2021/03/22 03:16:37;;;;;;;;;;;4.80;89.10;;;;;;4970576;28;20003;-72
2021/03/22 03:19:05;;;;;;;;;;;4.80;89.30;;;;;;4953279;28;19922;-72
2021/03/22 03:21:31;;;;;;;;;;;4.80;88.90;;;;;;4970598;28;20026;-73
2021/03/22 03:23:56;;;;;;;;;;;4.80;88.90;;;;;;4970545;28;20038;-72
2021/03/22 03:26:22;;;;;;;;;;;4.80;88.70;;;;;;4952053;28;19925;-73
2021/03/22 03:28:50;;;;;;;;;;;4.80;88.80;;;;;;4936543;28;20387;-72
2021/03/22 03:31:16;;;;;;;;;;;4.80;88.80;;;;;;4969909;28;20391;-74
2021/03/22 03:33:43;;;;;;;;;;;4.80;89.00;;;;;;4952153;28;19918;-73
2021/03/22 03:36:14;;;;;;;;;;;4.80;89.80;;;;;;4969233;28;19972;-73
2021/03/22 03:38:41;;;;;;;;;;;4.80;90.10;;;;;;4969776;28;19945;-73
2021/03/22 03:41:07;;;;;;;;;;;4.80;90.00;;;;;;4969154;28;19910;-73
2021/03/22 03:43:32;;;;;;;;;;;4.80;90.20;;;;;;4970824;28;19988;-72
2021/03/22 03:46:00;;;;;;;;;;;4.80;90.50;;;;;;4968518;28;20511;-73
2021/03/22 03:48:26;;;;;;;;;;;4.80;90.80;;;;;;4969644;28;19913;-73
2021/03/22 03:50:54;;;;;;;;;;;4.80;90.90;;;;;;4969923;28;20527;-73
2021/03/22 03:53:20;;;;;;;;;;;4.80;91.10;;;;;;4952399;28;20008;-72
2021/03/22 03:55:46;;;;;;;;;;;4.80;91.00;;;;;;4952492;28;20017;-72
2021/03/22 03:58:11;;;;;;;;;;;4.80;91.20;;;;;;4969126;28;19910;-72
2021/03/22 04:00:42;;;;;;;;;;;4.80;91.10;;;;;;4968990;28;19934;-73
2021/03/22 04:03:21;;;;;;;;;;;4.80;91.10;;;;;;4968413;28;19920;-73
2021/03/22 04:05:54;;;;;;;;;;;4.80;91.40;;;;;;4969932;28;19910;-73
2021/03/22 04:08:19;;;;;;;;;;;4.80;91.20;;;;;;4970013;28;20022;-73
2021/03/22 04:10:45;;;;;;;;;;;4.80;91.20;;;;;;4936819;28;20005;-73
2021/03/22 04:13:11;;;;;;;;;;;4.80;91.50;;;;;;4969234;28;20336;-72
2021/03/22 04:15:36;;;;;;;;;;;4.80;91.60;;;;;;4968743;28;19922;-73
2021/03/22 04:18:02;;;;;;;;;;;4.80;91.80;;;;;;4969480;28;20258;-72
2021/03/22 04:20:27;;;;;;;;;;;4.80;91.80;;;;;;4948740;28;19933;-73
2021/03/22 04:22:53;;;;;;;;;;;4.70;91.50;;;;;;4969272;28;20005;-72
2021/03/22 04:25:21;;;;;;;;;;;4.70;91.80;;;;;;4967946;28;20288;-72
2021/03/22 04:27:46;;;;;;;;;;;4.70;92.00;;;;;;4968098;28;20270;-72
2021/03/22 04:30:12;;;;;;;;;;;4.70;92.40;;;;;;4950586;28;19917;-72
2021/03/22 04:32:38;;;;;;;;;;;4.70;92.50;;;;;;4952357;28;19921;-73
2021/03/22 04:35:03;;;;;;;;;;;4.60;92.90;;;;;;4951666;28;19980;-72
2021/03/22 04:37:31;;;;;;;;;;;4.60;92.60;;;;;;4969222;28;19969;-72
2021/03/22 04:39:57;;;;;;;;;;;4.60;92.60;;;;;;4969197;28;20371;-73
2021/03/22 04:42:25;;;;;;;;;;;4.60;92.50;;;;;;4969714;28;19918;-73
2021/03/22 04:44:52;;;;;;;;;;;4.60;92.30;;;;;;4968827;28;19910;-72
2021/03/22 04:47:18;;;;;;;;;;;4.60;92.80;;;;;;4968606;28;19910;-73
2021/03/22 04:49:43;;;;;;;;;;;4.60;92.60;;;;;;4952072;28;19961;-72
2021/03/22 04:52:11;;;;;;;;;;;4.60;92.90;;;;;;4968912;28;19961;-72
2021/03/22 04:54:39;;;;;;;;;;;4.60;93.20;;;;;;4968481;28;19921;-72
2021/03/22 04:57:31;;;;;;;;;;;4.60;93.40;;;;;;4968953;28;19918;-72
2021/03/22 04:59:56;;;;;;;;;;;4.60;93.60;;;;;;4965464;28;19999;-72
2021/03/22 05:02:22;;;;;;;;;;;4.60;93.70;;;;;;4951667;28;19991;-72
2021/03/22 05:04:47;;;;;;;;;;;4.60;93.80;;;;;;4968850;28;19922;-72
2021/03/22 05:07:16;;;;;;;;;;;4.60;93.60;;;;;;4969024;28;20003;-72
2021/03/22 05:09:41;;;;;;;;;;;4.60;93.80;;;;;;4969320;28;19910;-73
2021/03/22 05:12:07;;;;;;;;;;;4.60;94.00;;;;;;4969540;28;19914;-72
2021/03/22 05:14:35;;;;;;;;;;;4.60;94.70;;;;;;4968242;28;19976;-72
2021/03/22 05:17:00;;;;;;;;;;;4.60;95.40;;;;;;4969007;28;20492;-73
2021/03/22 05:19:26;;;;;;;;;;;4.60;95.50;;;;;;4936700;28;19993;-73
2021/03/22 05:21:54;;;;;;;;;;;4.60;95.70;;;;;;4968466;28;20012;-73
2021/03/22 05:24:24;;;;;;;;;;;4.60;96.10;;;;;;4967132;28;19929;-73
2021/03/22 05:26:50;;;;;;;;;;;4.60;96.10;;;;;;4951365;28;19960;-73
2021/03/22 05:29:16;;;;;;;;;;;4.60;96.50;;;;;;4951040;28;19922;-73
2021/03/22 05:31:41;;;;;;;;;;;4.70;96.50;;;;;;4937135;28;20343;-72
2021/03/22 05:34:09;;;;;;;;;;;4.70;96.60;;;;;;4969337;28;19918;-72
2021/03/22 05:36:37;;;;;;;;;;;4.70;96.10;;;;;;4967450;28;20041;-73
2021/03/22 05:39:03;;;;;;;;;;;4.80;96.40;;;;;;4967730;28;19925;-73
2021/03/22 05:41:28;;;;;;;;;;;4.70;96.50;;;;;;4950746;28;20252;-73
2021/03/22 05:44:26;;;;;;;;;;;4.70;97.30;;;;;;4954040;28;19910;-73
2021/03/22 05:46:59;;;;;;;;;;;4.70;97.20;;;;;;4916265;28;19924;-72
2021/03/22 05:49:54;;;;;;;;;;;4.70;97.80;;;;;;4973344;28;19925;-73
2021/03/22 05:52:38;;;;;;;;;;;4.70;98.40;;;;;;4892533;28;20015;-72
2021/03/22 05:55:05;;;;;;;;;;;4.60;99.50;;;;;;4972413;28;19929;-72
2021/03/22 05:57:37;;;;;;;;;;;4.60;99.90;;;;;;4972491;28;19925;-73
2021/03/22 06:00:08;;;;;;;;;;;4.50;99.90;;;;;;4950444;28;20418;-73
2021/03/22 06:02:35;;;;;;;;;;;4.50;99.90;;;;;;4954259;28;19913;-72
2021/03/22 06:05:06;;;;;;;;;;;4.60;99.90;;;;;;4954933;28;19910;-73
2021/03/22 06:07:31;;;;;;;;;;;4.50;99.90;;;;;;4938500;28;19964;-72
2021/03/22 06:10:06;;;;;;;;;;;4.50;99.90;;;;;;4954019;28;19954;-73
2021/03/22 06:12:36;;;;;;;;;;;4.50;99.90;;;;;;4936357;28;19910;-73
2021/03/22 06:15:17;;;;;;;;;;;4.50;99.90;;;;;;4954256;28;19918;-73
2021/03/22 06:17:44;;;;;;;;;;;4.50;99.90;;;;;;4953245;28;19945;-73
2021/03/22 06:20:18;;;;;;;;;;;4.50;99.90;;;;;;4949973;28;19924;-72
2021/03/22 06:22:44;;;;;;;;;;;4.60;99.90;;;;;;4971090;28;20390;-72
2021/03/22 06:25:17;;;;;;;;;;;4.60;99.90;;;;;;4938325;28;19957;-73
2021/03/22 06:27:42;;;;;;;;;;;4.60;99.90;;;;;;4970815;28;20344;-73
2021/03/22 06:30:09;;;;;;;;;;;4.60;99.90;;;;;;4934997;28;20016;-73
2021/03/22 06:32:43;;;;;;;;;;;4.60;99.90;;;;;;4953535;28;19951;-72
2021/03/22 06:35:15;;;;;;;;;;;4.60;99.90;;;;;;4971908;28;19925;-72
2021/03/22 06:37:41;;;;;;;;;;;4.60;99.90;;;;;;4954492;28;19910;-72
2021/03/22 06:40:29;;;;;;;;;;;4.70;99.90;;;;;;4971279;28;20319;-73
2021/03/22 06:43:07;;;;;;;;;;;4.70;99.90;;;;;;4969661;28;20005;-72
2021/03/22 06:45:42;;;;;;;;;;;4.70;99.90;;;;;;4971281;28;19966;-72
2021/03/22 06:48:22;;;;;;;;;;;4.80;99.90;;;;;;4970398;28;19914;-73
2021/03/22 06:50:53;;;;;;;;;;;4.80;99.90;;;;;;4970161;28;19984;-72
2021/03/22 06:53:33;;;;;;;;;;;4.80;99.90;;;;;;4970438;28;20268;-73
2021/03/22 06:56:14;;;;;;;;;;;4.80;99.90;;;;;;4947512;28;19989;-73
2021/03/22 06:58:39;;;;;;;;;;;4.80;99.90;;;;;;4953103;28;19949;-72
2021/03/22 07:01:21;;;;;;;;;;;4.80;99.90;;;;;;4953427;28;19910;-72
2021/03/22 07:03:46;;;;;;;;;;;4.90;99.90;;;;;;4971027;28;19989;-72
2021/03/22 07:06:15;;;;;;;;;;;4.90;99.40;;;;;;4953160;28;19964;-73
2021/03/22 07:08:41;;;;;;;;;;;4.90;99.90;;;;;;4935767;28;20347;-72
2021/03/22 07:11:08;;;;;;;;;;;4.90;99.90;;;;;;4970648;28;20048;-73
2021/03/22 07:13:36;;;;;;;;;;;5.00;99.90;;;;;;4971187;28;19918;-72
2021/03/22 07:16:15;;;;;;;;;;;5.10;99.90;;;;;;4970290;28;19910;-73
2021/03/22 07:18:40;;;;;;;;;;;5.10;99.10;;;;;;4950697;28;19917;-72
2021/03/22 07:21:09;;;;;;;;;;;5.10;98.10;;;;;;4954918;28;20456;-72
2021/03/22 07:23:34;;;;;;;;;;;5.20;98.00;;;;;;4937704;28;19925;-72
2021/03/22 07:26:12;;;;;;;;;;;5.20;98.00;;;;;;4970414;28;20342;-72
2021/03/22 07:28:42;;;;;;;;;;;5.20;99.40;;;;;;4970085;28;19918;-73
2021/03/22 07:31:29;;;;;;;;;;;5.30;99.90;;;;;;4969743;28;20021;-72
2021/03/22 07:34:01;;;;;;;;;;;5.40;99.90;;;;;;4969633;28;20343;-73
2021/03/22 07:36:44;;;;;;;;;;;5.40;99.90;;;;;;4970537;28;20357;-72
2021/03/22 07:39:28;;;;;;;;;;;5.50;99.90;;;;;;4970192;28;20434;-73
2021/03/22 07:42:02;;;;;;;;;;;5.50;98.60;;;;;;4969995;28;19938;-73
2021/03/22 07:44:39;;;;;;;;;;;5.50;98.70;;;;;;4952827;28;19910;-72
2021/03/22 07:47:17;;;;;;;;;;;5.50;99.40;;;;;;4969140;28;20374;-73
2021/03/22 07:50:03;;;;;;;;;;;5.60;99.90;;;;;;4970959;28;19917;-73
2021/03/22 07:52:39;;;;;;;;;;;5.60;99.20;;;;;;4953055;28;19937;-72
2021/03/22 07:55:23;;;;;;;;;;;5.70;99.30;;;;;;4953885;28;20385;-73
2021/03/22 07:57:52;;;;;;;;;;;5.70;99.40;;;;;;4952384;28;19921;-73
2021/03/22 08:00:29;;;;;;;;;;;5.80;99.50;;;;;;4969095;28;19929;-73
2021/03/22 08:02:58;;;;;;;;;;;5.90;97.60;;;;;;4969511;28;19921;-73
2021/03/22 08:05:29;;;;;;;;;;;5.90;96.50;;;;;;4969195;28;19928;-73
2021/03/22 08:07:56;;;;;;;;;;;6.00;94.90;;;;;;4968681;28;20008;-73
2021/03/22 08:10:40;;;;;;;;;;;6.00;95.00;;;;;;4947830;28;19938;-73
2021/03/22 08:13:28;;;;;;;;;;;6.00;94.30;;;;;;4969295;28;19933;-72
2021/03/22 08:16:00;;;;;;;;;;;6.00;94.10;;;;;;4957580;28;20334;-73
2021/03/22 08:18:46;;;;;;;;;;;5.90;93.50;;;;;;4947481;28;20347;-73
2021/03/22 08:21:50;;;;;;;;;;;5.90;93.90;;;;;;4967365;28;21061;-73
2021/03/22 08:24:47;;;;;;;;;;;5.90;95.50;;;;;;4890016;29;20390;-73
2021/03/22 08:27:14;;;;;;;;;;;5.90;95.60;;;;;;4879543;29;19922;-72
2021/03/22 08:30:09;;;;;;;;;;;5.90;93.90;;;;;;4933494;28;19910;-73
2021/03/22 08:32:40;;;;;;;;;;;6.00;94.30;;;;;;4912902;28;19911;-72
2021/03/22 08:35:26;;;;;;;;;;;6.00;94.60;;;;;;4952048;28;19972;-72
2021/03/22 08:37:53;;;;;;;;;;;6.00;95.10;;;;;;4952387;28;19929;-72
2021/03/22 08:40:21;;;;;;;;;;;6.00;94.30;;;;;;4951959;28;19910;-72
2021/03/22 08:42:48;;;;;;;;;;;6.10;95.70;;;;;;4951560;28;19921;-72
2021/03/22 08:45:17;;;;;;;;;;;6.10;94.70;;;;;;4952373;28;19914;-72
2021/03/22 08:47:54;;;;;;;;;;;6.10;95.70;;;;;;4952303;28;19922;-72
2021/03/22 08:50:24;;;;;;;;;;;6.10;94.60;;;;;;4949018;28;19916;-73
2021/03/22 08:53:01;;;;;;;;;;;6.10;94.90;;;;;;4953356;28;20110;-73
2021/03/22 08:55:29;;;;;;;;;;;6.20;95.80;;;;;;4969964;28;19985;-72
2021/03/22 08:57:59;;;;;;;;;;;6.20;96.10;;;;;;4951980;28;19910;-72
2021/03/22 09:00:25;;;;;;;;;;;6.20;95.50;;;;;;4951720;28;19996;-72
2021/03/22 09:02:52;;;;;;;;;;;6.30;96.60;;;;;;4967067;28;19998;-72
2021/03/22 09:05:18;;;;;;;;;;;6.30;96.50;;;;;;4968862;28;20537;-72
2021/03/22 09:07:44;;;;;;;;;;;6.30;98.20;;;;;;4965807;28;19919;-72
2021/03/22 09:10:39;;;;;;;;;;;6.30;98.20;;;;;;4967415;28;19918;-73
2021/03/22 09:13:18;;;;;;;;;;;6.30;98.00;;;;;;4966700;28;20294;-73
2021/03/22 09:15:56;;;;;;;;;;;6.30;96.70;;;;;;4941146;28;19918;-73
2021/03/22 09:18:24;;;;;;;;;;;6.30;96.30;;;;;;4943824;28;19917;-73
2021/03/22 09:20:53;;;;;;;;;;;6.30;96.50;;;;;;4941118;28;19925;-72
2021/03/22 09:23:31;;;;;;;;;;;6.30;95.30;;;;;;4942687;28;19949;-73
2021/03/22 09:26:06;;;;;;;;;;;6.30;96.70;;;;;;4942957;28;20083;-73
2021/03/22 09:28:41;;;;;;;;;;;6.40;95.90;;;;;;4952978;28;20255;-76
2021/03/22 09:31:12;;;;;;;;;;;6.40;96.10;;;;;;4951655;28;19910;-75
2021/03/22 09:33:50;;;;;;;;;;;6.50;95.30;;;;;;4972073;28;19910;-75
2021/03/22 09:36:38;;;;;;;;;;;6.50;93.40;;;;;;4972316;28;19948;-76
2021/03/22 09:39:05;;;;;;;;;;;6.40;92.40;;;;;;4969071;28;19914;-76
2021/03/22 09:41:49;;;;;;;;;;;6.40;93.30;;;;;;4969878;28;20028;-75
2021/03/22 09:44:15;;;;;;;;;;;6.40;93.50;;;;;;4971049;28;19914;-72
2021/03/22 09:46:42;;;;;;;;;;;6.40;93.30;;;;;;4972078;28;19918;-71
2021/03/22 09:49:12;;;;;;;;;;;6.50;93.90;;;;;;4944298;28;19922;-73
2021/03/22 09:51:43;;;;;;;;;;;6.50;92.80;;;;;;4959570;28;19918;-73
2021/03/22 09:54:17;;;;;;;;;;;6.50;93.80;;;;;;4960732;28;20515;-72
2021/03/22 09:57:09;;;;;;;;;;;6.50;92.70;;;;;;4939341;28;19921;-73
2021/03/22 09:59:39;;;;;;;;;;;6.60;92.80;;;;;;4957331;28;20161;-73
2021/03/22 10:02:25;;;;;;;;;;;6.60;92.80;;;;;;4938799;28;19929;-72
2021/03/22 10:05:24;;;;;;;;;;;6.50;93.50;;;;;;4952695;28;20312;-72
2021/03/22 10:07:50;;;;;;;;;;;6.50;93.30;;;;;;4902210;28;19961;-72
2021/03/22 10:10:20;;;;;;;;;;;6.50;94.40;;;;;;4970772;28;19914;-73
2021/03/22 10:12:46;;;;;;;;;;;6.60;93.50;;;;;;4952908;28;19910;-72
2021/03/22 10:15:12;;;;;;;;;;;6.50;92.90;;;;;;4971335;28;19917;-72
2021/03/22 10:17:39;;;;;;;;;;;6.60;92.70;;;;;;4954078;28;19918;-73
2021/03/22 10:20:13;;;;;;;;;;;6.60;93.00;;;;;;4965365;28;20737;-73
2021/03/22 10:22:38;;;;;;;;;;;6.60;92.50;;;;;;4951049;28;19956;-72
2021/03/22 10:25:07;;;;;;;;;;;6.60;92.70;;;;;;4946134;28;19957;-73
2021/03/22 10:27:34;;;;;;;;;;;6.60;93.00;;;;;;4948798;28;20016;-73
2021/03/22 10:30:05;;;;;;;;;;;6.60;92.80;;;;;;4950329;28;20319;-73
2021/03/22 10:32:31;;;;;;;;;;;6.70;92.80;;;;;;4968509;28;19941;-73
2021/03/22 10:35:09;;;;;;;;;;;6.70;93.00;;;;;;4933826;28;20282;-73
2021/03/22 10:37:42;;;;;;;;;;;6.70;93.10;;;;;;4967716;28;19964;-73
2021/03/22 10:40:39;;;;;;;;;;;6.70;93.00;;;;;;4266029;28;10020874;-72
2021/03/22 10:43:05;;;;;;;;;;;6.60;92.50;;;;;;4600549;28;9999889;-73
2021/03/22 10:45:33;;;;;;;;;;;6.60;93.90;;;;;;4924054;28;20325;-72
2021/03/22 10:48:00;;;;;;;;;;;6.60;94.70;;;;;;4947751;28;20025;-74
2021/03/22 10:50:37;;;;;;;;;;;6.60;94.20;;;;;;4967087;28;19914;-74
2021/03/22 10:53:13;;;;;;;;;;;6.70;98.00;;;;;;4949180;28;19950;-74
2021/03/22 10:55:41;;;;;;;;;;;6.80;99.20;;;;;;4945942;28;19940;-74
2021/03/22 10:58:09;;;;;;;;;;;6.90;96.90;;;;;;4965579;28;20319;-72
2021/03/22 11:00:44;;;;;;;;;;;7.00;91.30;;;;;;4945030;28;20049;-72
2021/03/22 11:03:10;;;;;;;;;;;7.10;92.60;;;;;;4948482;28;19941;-74
2021/03/22 11:05:37;;;;;;;;;;;7.20;93.20;;;;;;4969178;28;19918;-73
2021/03/22 11:08:08;;;;;;;;;;;7.30;95.10;;;;;;4968022;28;20102;-76
2021/03/22 11:10:34;;;;;;;;;;;7.30;89.50;;;;;;4946628;28;19929;-76
2021/03/22 11:12:59;;;;;;;;;;;7.30;88.10;;;;;;4964148;28;19960;-73
2021/03/22 11:15:28;;;;;;;;;;;7.30;87.20;;;;;;4968779;28;19918;-73
2021/03/22 11:17:54;;;;;;;;;;;7.40;89.30;;;;;;4952261;28;20283;-73
2021/03/22 11:20:23;;;;;;;;;;;7.40;87.30;;;;;;4971055;28;19935;-73
2021/03/22 11:22:49;;;;;;;;;;;7.40;88.20;;;;;;4969288;28;22510;-73
2021/03/22 11:25:30;;;;;;;;;;;7.30;85.00;;;;;;4949370;28;19913;-73
2021/03/22 11:28:04;;;;;;;;;;;7.30;88.20;;;;;;4952543;28;19917;-73
2021/03/22 11:30:36;;;;;;;;;;;7.40;89.70;;;;;;4969730;28;20003;-73
2021/03/22 11:33:13;;;;;;;;;;;7.30;86.50;;;;;;4965412;28;19918;-73
2021/03/22 11:35:41;;;;;;;;;;;7.20;86.20;;;;;;4952150;28;19998;-73
2021/03/22 11:38:14;;;;;;;;;;;7.30;87.30;;;;;;4948981;28;19921;-73
2021/03/22 11:40:44;;;;;;;;;;;7.30;90.40;;;;;;4934252;28;19917;-73
2021/03/22 11:43:26;;;;;;;;;;;7.30;90.20;;;;;;4952162;28;19922;-73
2021/03/22 11:45:54;;;;;;;;;;;7.40;89.70;;;;;;4953819;28;19921;-74
2021/03/22 11:48:19;;;;;;;;;;;7.40;90.50;;;;;;4952890;28;19981;-73
2021/03/22 11:50:47;;;;;;;;;;;7.50;89.70;;;;;;4960836;28;19918;-73
2021/03/22 11:53:18;;;;;;;;;;;7.50;90.90;;;;;;4952992;28;20690;-73
2021/03/22 11:55:44;;;;;;;;;;;7.50;89.70;;;;;;4969828;28;19914;-72
2021/03/22 11:58:26;;;;;;;;;;;7.60;90.60;;;;;;4948609;28;19957;-73
2021/03/22 12:00:54;;;;;;;;;;;7.60;88.70;;;;;;4950719;28;19918;-73
2021/03/22 12:03:30;;;;;;;;;;;7.60;86.60;;;;;;4948280;28;19921;-73
2021/03/22 12:06:15;;;;;;;;;;;7.60;87.60;;;;;;4950667;28;19914;-73
2021/03/22 12:08:47;;;;;;;;;;;7.60;89.40;;;;;;4968750;28;20351;-73
2021/03/22 12:11:16;;;;;;;;;;;7.60;91.10;;;;;;4967738;28;19957;-73
2021/03/22 12:13:48;;;;;;;;;;;7.60;88.60;;;;;;4931973;28;19933;-72
2021/03/22 12:16:23;;;;;;;;;;;7.60;86.40;;;;;;4968767;28;19921;-73
2021/03/22 12:18:49;;;;;;;;;;;7.60;88.30;;;;;;4968279;28;19920;-73
2021/03/22 12:21:14;;;;;;;;;;;7.70;87.90;;;;;;4948793;28;19910;-73
2021/03/22 12:23:40;;;;;;;;;;;7.70;87.70;;;;;;4951460;28;19921;-74
2021/03/22 12:26:06;;;;;;;;;;;7.70;86.30;;;;;;4951445;28;19925;-73
2021/03/22 12:28:32;;;;;;;;;;;7.70;87.20;;;;;;4951651;28;19989;-73
2021/03/22 12:30:57;;;;;;;;;;;7.70;87.90;;;;;;4950805;28;20501;-73
2021/03/22 12:33:25;;;;;;;;;;;7.70;91.30;;;;;;4969773;28;19943;-73
2021/03/22 12:35:53;;;;;;;;;;;7.70;90.60;;;;;;4951401;28;19961;-72
2021/03/22 12:38:18;;;;;;;;;;;7.80;92.30;;;;;;4951069;28;19910;-73
2021/03/22 12:40:46;;;;;;;;;;;7.90;91.60;;;;;;4950655;28;19914;-73
2021/03/22 12:43:28;;;;;;;;;;;8.10;92.40;;;;;;4968442;28;19910;-73
2021/03/22 12:45:53;;;;;;;;;;;8.20;91.10;;;;;;4951606;28;19988;-73
2021/03/22 12:48:19;;;;;;;;;;;8.30;87.10;;;;;;4966759;28;20371;-73
2021/03/22 12:50:49;;;;;;;;;;;8.30;85.50;;;;;;4949904;28;19910;-76
2021/03/22 12:53:14;;;;;;;;;;;8.40;89.50;;;;;;4973243;28;19929;-72
2021/03/22 12:55:40;;;;;;;;;;;8.50;87.90;;;;;;4953889;28;19918;-73
2021/03/22 12:58:11;;;;;;;;;;;8.50;90.10;;;;;;4973014;28;20334;-73
2021/03/22 13:00:36;;;;;;;;;;;8.50;88.50;;;;;;4940378;28;20410;-73
2021/03/22 13:03:02;;;;;;;;;;;8.50;89.30;;;;;;4953511;28;19918;-73
2021/03/22 13:05:31;;;;;;;;;;;8.50;89.80;;;;;;4970984;28;20343;-73
2021/03/22 13:07:59;;;;;;;;;;;8.50;90.70;;;;;;4954763;28;20595;-74
2021/03/22 13:10:31;;;;;;;;;;;8.50;90.40;;;;;;4954281;28;19910;-73
2021/03/22 13:12:57;;;;;;;;;;;8.40;89.60;;;;;;4971044;28;19918;-73
2021/03/22 13:15:26;;;;;;;;;;;8.30;90.50;;;;;;4971862;28;19914;-73
2021/03/22 13:17:51;;;;;;;;;;;8.30;92.40;;;;;;4955275;28;19916;-73
2021/03/22 13:20:18;;;;;;;;;;;8.20;93.90;;;;;;4971971;28;20009;-73
2021/03/22 13:22:46;;;;;;;;;;;8.10;94.90;;;;;;4955090;28;19969;-74
2021/03/22 13:25:12;;;;;;;;;;;8.00;96.80;;;;;;4973019;28;19976;-73
2021/03/22 13:27:40;;;;;;;;;;;8.10;97.70;;;;;;4970810;28;19914;-73
2021/03/22 13:30:08;;;;;;;;;;;8.10;99.90;;;;;;4972273;28;19914;-73
2021/03/22 13:32:33;;;;;;;;;;;8.20;99.90;;;;;;4971931;28;20029;-73
2021/03/22 13:35:02;;;;;;;;;;;8.20;99.90;;;;;;4970774;28;19995;-74
2021/03/22 13:37:27;;;;;;;;;;;8.30;99.90;;;;;;4973165;28;19924;-73
2021/03/22 13:39:53;;;;;;;;;;;8.30;97.50;;;;;;4951890;28;19918;-73
2021/03/22 13:42:19;;;;;;;;;;;8.40;99.90;;;;;;4969471;28;20256;-73
2021/03/22 13:44:48;;;;;;;;;;;8.40;97.70;;;;;;4953189;28;20016;-74
2021/03/22 13:47:13;;;;;;;;;;;8.50;96.90;;;;;;4968313;28;20021;-73
2021/03/22 13:49:39;;;;;;;;;;;8.50;96.20;;;;;;4953734;28;20052;-73
2021/03/22 13:52:05;;;;;;;;;;;8.50;94.90;;;;;;4972968;28;19938;-73
2021/03/22 13:54:31;;;;;;;;;;;8.60;94.00;;;;;;4934845;28;20022;-73
2021/03/22 13:56:57;;;;;;;;;;;8.60;92.50;;;;;;4953613;28;19910;-73
2021/03/22 13:59:23;;;;;;;;;;;8.50;93.30;;;;;;4972221;28;19906;-73
2021/03/22 14:01:52;;;;;;;;;;;8.50;96.30;;;;;;4955708;28;19910;-74
2021/03/22 14:04:20;;;;;;;;;;;8.40;95.20;;;;;;4949469;28;19921;-73
2021/03/22 14:06:48;;;;;;;;;;;8.30;97.80;;;;;;4971023;28;19984;-73
2021/03/22 14:09:14;;;;;;;;;;;8.20;99.90;;;;;;4971804;28;19921;-74
2021/03/22 14:11:40;;;;;;;;;;;8.00;99.90;;;;;;4971326;28;19914;-74
2021/03/22 14:14:06;;;;;;;;;;;7.80;99.90;;;;;;4952123;28;19914;-75
2021/03/22 14:16:34;;;;;;;;;;;7.70;99.90;;;;;;4950977;28;19968;-75
2021/03/22 14:18:59;;;;;;;;;;;7.60;99.90;;;;;;4934473;28;19914;-75
2021/03/22 14:21:25;;;;;;;;;;;7.50;99.90;;;;;;4952478;28;19910;-75
2021/03/22 14:23:51;;;;;;;;;;;7.50;99.90;;;;;;4953221;28;19922;-75
2021/03/22 14:26:17;;;;;;;;;;;7.50;99.90;;;;;;4968758;28;19910;-75
2021/03/22 14:28:45;;;;;;;;;;;7.60;99.90;;;;;;4953787;28;19913;-75
2021/03/22 14:31:11;;;;;;;;;;;7.70;99.90;;;;;;4971265;28;19940;-75
2021/03/22 14:33:37;;;;;;;;;;;7.70;99.90;;;;;;4933858;28;19925;-77
2021/03/22 14:36:05;;;;;;;;;;;7.70;99.90;;;;;;4965436;28;19914;-77
2021/03/22 14:38:30;;;;;;;;;;;7.80;99.90;;;;;;4967508;28;20013;-75
2021/03/22 14:40:56;;;;;;;;;;;7.90;99.90;;;;;;4968068;28;20396;-75
2021/03/22 14:43:23;;;;;;;;;;;7.90;99.90;;;;;;4968515;28;19914;-75
2021/03/22 14:45:51;;;;;;;;;;;8.00;99.90;;;;;;4968968;28;19961;-75
2021/03/22 14:48:19;;;;;;;;;;;8.10;99.90;;;;;;4953728;28;19921;-75